Terminal Aerodrome Forecast
Issued by NWS

Home | Current Version | Previous Version | Text Only | Print | Product List | Glossary On
Versions: 1 2 3 4 5 6 7 8 9 10 11 12 13
000
FTUS42 KTBW 302300 RRA
TAFLAL
TAF
KLAL 302341Z 3100/3124 33005KT P6SM SCT060
     FM310100 VRB03KT P6SM FEW250
     FM311500 28006KT P6SM FEW040 SCT250
      AMD NOT SKED 3103/3112=

USA.gov is the U.S. government's official web portal to all federal, state and local government web resources and services.